createdAt,value
2018-12-09T00:00:23.297Z,3.17
2018-12-09T00:02:50.751Z,2.40
2018-12-09T00:05:18.215Z,3.10
2018-12-09T00:07:45.677Z,2.93
2018-12-09T00:10:13.138Z,2.97
2018-12-09T00:12:40.614Z,2.70
2018-12-09T00:15:08.849Z,2.63
2018-12-09T00:17:36.310Z,2.20
2018-12-09T00:20:03.781Z,2.53
2018-12-09T00:22:31.281Z,2.27
2018-12-09T00:24:58.748Z,2.50
2018-12-09T00:27:26.210Z,2.60
2018-12-09T00:29:53.671Z,2.33
2018-12-09T00:32:21.149Z,2.13
2018-12-09T00:34:49.399Z,2.53
2018-12-09T00:37:16.860Z,2.03
2018-12-09T00:39:44.435Z,2.73
2018-12-09T00:42:11.883Z,2.70
2018-12-09T00:44:39.358Z,2.23
2018-12-09T00:47:06.834Z,2.80
2018-12-09T00:49:35.136Z,3.20
2018-12-09T00:52:03.527Z,2.77
2018-12-09T00:54:31.757Z,2.37
2018-12-09T00:56:59.226Z,2.73
2018-12-09T00:59:26.688Z,2.67
2018-12-09T01:01:54.260Z,2.17
2018-12-09T01:04:21.715Z,2.20
2018-12-09T01:06:49.482Z,2.33
2018-12-09T01:09:16.940Z,2.80
2018-12-09T01:11:44.390Z,3.00
2018-12-09T01:14:11.876Z,2.37
2018-12-09T01:16:39.344Z,2.23
2018-12-09T01:19:06.810Z,2.73
2018-12-09T01:21:35.041Z,2.77
2018-12-09T01:24:02.499Z,2.27
2018-12-09T01:26:29.975Z,2.33
2018-12-09T01:28:57.445Z,2.97
2018-12-09T01:31:26.411Z,2.73
2018-12-09T01:33:53.866Z,3.10
2018-12-09T01:36:21.340Z,2.47
2018-12-09T01:38:48.793Z,3.40
2018-12-09T01:41:16.252Z,2.10
2018-12-09T01:43:43.719Z,2.57
2018-12-09T01:46:11.194Z,2.33
2018-12-09T01:48:38.656Z,2.67
2018-12-09T01:51:06.119Z,2.77
2018-12-09T01:53:45.386Z,3.47
2018-12-09T01:56:12.867Z,2.13
2018-12-09T01:58:41.094Z,3.00
2018-12-09T02:01:08.569Z,2.47
2018-12-09T02:03:36.061Z,2.60
2018-12-09T02:06:03.868Z,2.03
2018-12-09T02:08:31.369Z,2.77
2018-12-09T02:10:59.618Z,2.40
2018-12-09T02:13:27.093Z,2.83
2018-12-09T02:15:54.575Z,2.47
2018-12-09T02:18:22.849Z,2.40
2018-12-09T02:20:51.826Z,1.93
2018-12-09T02:23:20.052Z,2.20
2018-12-09T02:25:48.297Z,2.63
2018-12-09T02:28:15.863Z,2.30
2018-12-09T02:30:43.368Z,2.20
2018-12-09T02:33:10.788Z,1.90
2018-12-09T02:35:38.250Z,2.40
2018-12-09T02:38:05.722Z,2.60
2018-12-09T02:40:33.284Z,2.87
2018-12-09T02:43:00.851Z,2.50
2018-12-09T02:45:29.101Z,2.37
2018-12-09T02:47:56.570Z,1.97
2018-12-09T02:50:24.253Z,2.30
2018-12-09T02:52:51.710Z,2.47
2018-12-09T02:55:19.181Z,2.33
2018-12-09T02:57:46.741Z,2.33
2018-12-09T03:00:14.189Z,2.23
2018-12-09T03:02:41.655Z,2.27
2018-12-09T03:05:09.131Z,2.13
2018-12-09T03:07:37.352Z,2.07
2018-12-09T03:10:04.810Z,2.10
2018-12-09T03:12:32.325Z,2.10
2018-12-09T03:14:59.875Z,1.93
2018-12-09T03:17:27.335Z,2.03
2018-12-09T03:19:54.808Z,2.73
2018-12-09T03:22:22.371Z,2.83
2018-12-09T03:24:49.827Z,2.20
2018-12-09T03:27:17.287Z,1.80
2018-12-09T03:29:44.754Z,2.60
2018-12-09T03:32:12.224Z,2.30
2018-12-09T03:34:39.684Z,2.33
2018-12-09T03:37:07.163Z,2.07
2018-12-09T03:39:34.624Z,2.30
2018-12-09T03:42:02.159Z,2.63
2018-12-09T03:44:29.626Z,2.47
2018-12-09T03:46:57.095Z,1.80
2018-12-09T03:49:26.083Z,2.20
2018-12-09T03:51:53.549Z,1.97
2018-12-09T03:54:21.130Z,2.47
2018-12-09T03:56:48.671Z,2.20
2018-12-09T03:59:16.145Z,2.23
2018-12-09T04:01:43.623Z,1.77
2018-12-09T04:04:11.095Z,2.23
2018-12-09T04:06:39.310Z,1.90
2018-12-09T04:09:06.770Z,2.23
2018-12-09T04:11:34.280Z,2.03
2018-12-09T04:14:01.736Z,2.30
2018-12-09T04:16:29.203Z,2.53
2018-12-09T04:18:56.766Z,2.30
2018-12-09T04:21:24.230Z,2.43
2018-12-09T04:23:51.691Z,2.63
2018-12-09T04:26:19.158Z,2.93
2018-12-09T04:28:46.617Z,2.67
2018-12-09T04:31:14.082Z,2.63
2018-12-09T04:33:41.637Z,2.70
2018-12-09T04:36:09.096Z,2.33
2018-12-09T04:38:38.057Z,3.10
2018-12-09T04:41:05.528Z,2.23
2018-12-09T04:43:33.000Z,2.27
2018-12-09T04:46:00.465Z,2.60
2018-12-09T04:48:27.936Z,2.30
2018-12-09T04:50:55.413Z,2.37
2018-12-09T04:53:23.650Z,2.33
2018-12-09T04:55:51.138Z,2.40
2018-12-09T04:58:18.903Z,2.63
2018-12-09T05:00:53.914Z,2.23
2018-12-09T05:03:21.401Z,2.63
2018-12-09T05:05:48.867Z,2.33
2018-12-09T05:08:16.330Z,2.33
2018-12-09T05:10:43.894Z,2.27
2018-12-09T05:13:11.353Z,3.07
2018-12-09T05:15:38.809Z,1.90
2018-12-09T05:18:06.275Z,2.23
2018-12-09T05:20:33.832Z,2.33
2018-12-09T05:23:01.408Z,2.27
2018-12-09T05:25:28.969Z,2.80
2018-12-09T05:27:56.417Z,2.30
2018-12-09T05:30:23.964Z,2.80
2018-12-09T05:32:51.458Z,2.40
2018-12-09T05:35:18.922Z,2.40
2018-12-09T05:37:46.478Z,2.13
2018-12-09T05:40:13.931Z,2.17
2018-12-09T05:42:41.506Z,2.37
2018-12-09T05:45:09.070Z,2.40
2018-12-09T05:47:36.565Z,2.87
2018-12-09T05:50:04.791Z,2.37
2018-12-09T05:52:32.255Z,2.67
2018-12-09T05:54:59.717Z,2.77
2018-12-09T05:57:27.187Z,2.70
2018-12-09T05:59:54.651Z,2.30
2018-12-09T06:02:45.945Z,2.40
2018-12-09T06:05:13.422Z,2.53
2018-12-09T06:07:40.990Z,2.60
2018-12-09T06:10:08.447Z,2.53
2018-12-09T06:12:36.019Z,2.70
2018-12-09T06:15:04.660Z,2.20
2018-12-09T06:17:32.126Z,2.37
2018-12-09T06:19:59.635Z,2.73
2018-12-09T06:22:27.201Z,2.63
2018-12-09T06:24:56.187Z,2.80
2018-12-09T06:27:23.665Z,2.13
2018-12-09T06:29:51.174Z,2.83
2018-12-09T06:32:18.630Z,2.40
2018-12-09T06:34:46.142Z,2.60
2018-12-09T06:37:13.608Z,2.20
2018-12-09T06:39:41.072Z,2.00
2018-12-09T06:42:08.627Z,2.17
2018-12-09T06:44:36.872Z,2.40
2018-12-09T06:47:04.525Z,2.20
2018-12-09T06:49:31.983Z,3.03
2018-12-09T06:51:59.445Z,3.13
2018-12-09T06:54:26.918Z,2.17
2018-12-09T06:56:54.359Z,2.37
2018-12-09T06:59:21.839Z,2.50
2018-12-09T07:01:49.290Z,2.40
2018-12-09T07:04:16.767Z,2.27
2018-12-09T07:06:44.224Z,2.57
2018-12-09T07:09:11.727Z,2.50
2018-12-09T07:11:39.218Z,2.03
2018-12-09T07:14:06.685Z,2.27
2018-12-09T07:16:34.931Z,2.30
2018-12-09T07:19:02.501Z,2.03
2018-12-09T07:21:30.055Z,2.17
2018-12-09T07:23:57.529Z,1.93
2018-12-09T07:26:25.807Z,1.90
2018-12-09T07:28:53.268Z,2.50
2018-12-09T07:31:20.711Z,2.30
2018-12-09T07:33:48.187Z,2.10
2018-12-09T07:36:16.764Z,1.73
2018-12-09T07:38:44.330Z,2.13
2018-12-09T07:41:11.895Z,1.37
2018-12-09T07:43:39.475Z,1.30
2018-12-09T07:46:08.459Z,1.70
2018-12-09T07:48:36.683Z,1.43
2018-12-09T07:51:04.149Z,1.70
2018-12-09T07:53:31.682Z,1.30
2018-12-09T07:55:59.130Z,1.20
2018-12-09T07:58:26.961Z,1.17
2018-12-09T08:00:54.415Z,1.70
2018-12-09T08:03:21.873Z,2.27
2018-12-09T08:05:49.391Z,1.80
2018-12-09T08:08:16.854Z,1.60
2018-12-09T08:10:44.303Z,1.80
2018-12-09T08:13:11.769Z,1.53
2018-12-09T08:15:39.232Z,1.73
2018-12-09T08:18:06.697Z,1.50
2018-12-09T08:20:34.156Z,1.30
2018-12-09T08:23:01.622Z,1.20
2018-12-09T08:25:29.087Z,1.37
2018-12-09T08:27:56.559Z,1.60
2018-12-09T08:30:24.101Z,0.87
2018-12-09T08:32:51.683Z,1.03
2018-12-09T08:35:19.140Z,1.00
2018-12-09T08:37:47.387Z,1.20
2018-12-09T08:40:14.872Z,1.03
2018-12-09T08:42:42.445Z,1.40
2018-12-09T08:45:10.863Z,1.17
2018-12-09T08:47:38.252Z,1.60
2018-12-09T08:50:05.708Z,1.33
2018-12-09T08:52:33.218Z,1.47
2018-12-09T08:55:00.665Z,1.00
2018-12-09T08:57:28.126Z,1.23
2018-12-09T08:59:55.697Z,1.43
2018-12-09T09:02:23.154Z,1.50
2018-12-09T09:04:50.611Z,1.70
2018-12-09T09:07:18.910Z,1.80
2018-12-09T09:09:46.458Z,2.03
2018-12-09T09:12:13.927Z,1.63
2018-12-09T09:14:42.912Z,1.60
2018-12-09T09:17:10.374Z,1.15
2018-12-09T09:19:37.841Z,1.20
2018-12-09T09:22:05.304Z,1.00
2018-12-09T09:24:32.863Z,1.60
2018-12-09T09:27:00.330Z,1.77
2018-12-09T09:29:27.807Z,1.13
2018-12-09T09:31:56.068Z,2.00
2018-12-09T09:34:23.566Z,1.90
2018-12-09T09:36:52.042Z,1.10
2018-12-09T09:39:20.282Z,1.30
2018-12-09T09:41:48.596Z,1.57
2018-12-09T09:44:16.857Z,1.20
2018-12-09T09:46:44.314Z,1.43
2018-12-09T09:49:11.790Z,1.58
2018-12-09T09:51:39.292Z,1.23
2018-12-09T09:54:06.741Z,1.10
2018-12-09T09:56:35.015Z,1.10
2018-12-09T09:59:04.173Z,0.90
2018-12-09T10:01:31.661Z,1.10
2018-12-09T10:03:59.159Z,1.03
2018-12-09T10:06:26.652Z,1.97
2018-12-09T10:08:54.173Z,1.17
2018-12-09T10:11:22.424Z,1.30
2018-12-09T10:13:49.921Z,1.33
2018-12-09T10:16:17.447Z,1.27
2018-12-09T10:18:45.825Z,1.43
2018-12-09T10:21:13.313Z,1.60
2018-12-09T10:23:41.537Z,1.20
2018-12-09T10:26:09.134Z,1.33
2018-12-09T10:28:36.704Z,1.27
2018-12-09T10:31:04.869Z,1.13
2018-12-09T10:33:32.383Z,1.47
2018-12-09T10:35:59.904Z,1.63
2018-12-09T10:38:27.358Z,1.43
2018-12-09T10:40:54.827Z,1.70
2018-12-09T10:43:23.128Z,1.50
2018-12-09T10:45:51.388Z,1.30
2018-12-09T10:48:18.941Z,1.33
2018-12-09T10:50:46.420Z,1.60
2018-12-09T10:53:13.884Z,2.40
2018-12-09T10:55:42.894Z,1.57
2018-12-09T10:58:11.142Z,1.30
2018-12-09T11:00:45.435Z,1.40
2018-12-09T11:03:12.897Z,1.40
2018-12-09T11:05:40.420Z,0.97
2018-12-09T11:08:08.647Z,1.17
2018-12-09T11:10:36.109Z,1.20
2018-12-09T11:13:04.098Z,1.58
2018-12-09T11:15:31.651Z,1.53
2018-12-09T11:17:59.105Z,1.47
2018-12-09T11:20:26.571Z,1.67
2018-12-09T11:22:54.049Z,1.27
2018-12-09T11:25:21.611Z,1.70
2018-12-09T11:27:49.079Z,1.30
2018-12-09T11:30:18.043Z,1.73
2018-12-09T11:32:45.501Z,1.53
2018-12-09T11:35:12.959Z,1.80
2018-12-09T11:37:40.419Z,1.53
2018-12-09T11:40:07.872Z,1.40
2018-12-09T11:42:35.341Z,2.00
2018-12-09T11:45:03.705Z,2.50
2018-12-09T11:47:31.173Z,1.87
2018-12-09T11:49:58.643Z,1.23
2018-12-09T11:52:26.096Z,1.40
2018-12-09T11:54:53.600Z,1.67
2018-12-09T11:57:21.165Z,1.50
2018-12-09T11:59:50.590Z,2.23
2018-12-09T12:02:20.100Z,1.50
2018-12-09T12:04:46.278Z,1.40
2018-12-09T12:07:13.750Z,1.53
2018-12-09T12:09:41.245Z,1.60
2018-12-09T12:12:08.694Z,1.50
2018-12-09T12:14:36.159Z,1.50
2018-12-09T12:17:04.653Z,1.52
2018-12-09T12:19:32.111Z,1.70
2018-12-09T12:21:59.595Z,1.30
2018-12-09T12:24:27.069Z,1.43
2018-12-09T12:26:55.287Z,1.30
2018-12-09T12:29:22.756Z,1.63
2018-12-09T12:31:50.224Z,1.40
2018-12-09T12:34:17.678Z,1.43
2018-12-09T12:36:45.156Z,1.93
2018-12-09T12:39:12.608Z,1.73
2018-12-09T12:41:40.096Z,1.40
2018-12-09T12:44:07.558Z,1.50
2018-12-09T12:46:35.116Z,1.80
2018-12-09T12:49:02.683Z,2.17
2018-12-09T12:51:31.142Z,2.00
2018-12-09T12:53:58.615Z,1.63
2018-12-09T12:56:26.073Z,1.60
2018-12-09T12:58:53.652Z,1.37
2018-12-09T13:01:21.097Z,2.10
2018-12-09T13:03:48.574Z,2.10
2018-12-09T13:06:16.804Z,1.97
2018-12-09T13:08:44.272Z,2.03
2018-12-09T13:11:11.728Z,1.47
2018-12-09T13:13:39.229Z,1.57
2018-12-09T13:16:06.694Z,2.20
2018-12-09T13:18:34.174Z,2.27
2018-12-09T13:21:01.719Z,1.60
2018-12-09T13:23:29.188Z,2.00
2018-12-09T13:25:56.747Z,1.27
2018-12-09T13:28:24.208Z,0.90
2018-12-09T13:30:51.728Z,1.40
2018-12-09T13:33:19.176Z,1.20
2018-12-09T13:35:47.381Z,1.40
2018-12-09T13:38:14.878Z,1.33
2018-12-09T13:40:42.403Z,1.40
2018-12-09T13:43:09.856Z,1.30
2018-12-09T13:45:37.360Z,1.60
2018-12-09T13:48:04.808Z,1.83
2018-12-09T13:50:32.290Z,1.73
2018-12-09T13:53:00.515Z,2.23
2018-12-09T13:55:27.966Z,1.70
2018-12-09T13:57:56.191Z,2.07
2018-12-09T14:00:23.660Z,2.03
2018-12-09T14:02:51.133Z,1.77
2018-12-09T14:05:18.602Z,1.53
2018-12-09T14:07:46.827Z,1.67
2018-12-09T14:10:14.349Z,1.70
2018-12-09T14:12:43.317Z,1.63
2018-12-09T14:15:10.764Z,1.80
2018-12-09T14:17:38.264Z,1.77
2018-12-09T14:20:06.541Z,1.50
2018-12-09T14:22:34.043Z,1.77
2018-12-09T14:25:02.279Z,1.80
2018-12-09T14:27:29.770Z,1.63
2018-12-09T14:29:57.985Z,2.30
2018-12-09T14:32:25.445Z,1.57
2018-12-09T14:34:53.041Z,1.87
2018-12-09T14:37:21.191Z,1.17
2018-12-09T14:39:48.703Z,1.50
2018-12-09T14:42:16.174Z,1.37
2018-12-09T14:44:44.438Z,2.00
2018-12-09T14:47:11.987Z,1.87
2018-12-09T14:49:39.439Z,1.90
2018-12-09T14:52:06.915Z,1.90
2018-12-09T14:54:34.381Z,1.70
2018-12-09T14:57:01.829Z,1.60
2018-12-09T14:59:29.295Z,2.00
2018-12-09T15:01:56.752Z,2.00
2018-12-09T15:04:24.220Z,1.90
2018-12-09T15:06:51.675Z,1.93
2018-12-09T15:09:19.119Z,1.57
2018-12-09T15:11:46.581Z,1.80
2018-12-09T15:14:14.300Z,1.87
2018-12-09T15:16:42.543Z,1.30
2018-12-09T15:19:10.025Z,2.00
2018-12-09T15:21:37.487Z,1.67
2018-12-09T15:24:06.441Z,1.33
2018-12-09T15:26:33.899Z,1.60
2018-12-09T15:29:01.416Z,1.70
2018-12-09T15:31:28.887Z,1.70
2018-12-09T15:33:57.102Z,1.57
2018-12-09T15:36:24.557Z,1.87
2018-12-09T15:38:52.047Z,1.30
2018-12-09T15:41:19.492Z,1.57
2018-12-09T15:43:46.950Z,1.63
2018-12-09T15:46:14.449Z,1.67
2018-12-09T15:48:41.925Z,2.00
2018-12-09T15:51:09.377Z,1.87
2018-12-09T15:53:36.945Z,1.90
2018-12-09T15:56:04.417Z,2.00
2018-12-09T15:58:32.684Z,1.67
2018-12-09T16:01:00.150Z,1.73
2018-12-09T16:03:27.610Z,2.33
2018-12-09T16:05:55.062Z,1.97
2018-12-09T16:08:22.514Z,2.00
2018-12-09T16:10:50.078Z,1.70
2018-12-09T16:13:17.521Z,2.27
2018-12-09T16:15:44.977Z,2.30
2018-12-09T16:18:12.434Z,1.77
2018-12-09T16:20:39.950Z,2.27
2018-12-09T16:23:07.401Z,2.20
2018-12-09T16:25:34.954Z,2.23
2018-12-09T16:28:02.414Z,1.83
2018-12-09T16:30:29.870Z,2.00
2018-12-09T16:32:57.448Z,1.90
2018-12-09T16:35:24.895Z,1.93
2018-12-09T16:37:52.348Z,1.40
2018-12-09T16:40:19.818Z,2.00
2018-12-09T16:42:47.282Z,1.57
2018-12-09T16:45:14.750Z,2.60
2018-12-09T16:47:42.190Z,2.00
2018-12-09T16:50:09.645Z,1.67
2018-12-09T16:52:37.101Z,1.93
2018-12-09T16:55:04.596Z,1.63
2018-12-09T16:57:32.063Z,1.70
2018-12-09T16:59:59.562Z,1.57
2018-12-09T17:02:27.789Z,1.97
2018-12-09T17:04:55.238Z,2.00
2018-12-09T17:07:22.704Z,2.07
2018-12-09T17:09:50.155Z,2.60
2018-12-09T17:12:17.615Z,2.80
2018-12-09T17:14:45.925Z,2.77
2018-12-09T17:17:13.490Z,2.87
2018-12-09T17:19:40.864Z,2.30
2018-12-09T17:22:08.330Z,2.20
2018-12-09T17:24:35.888Z,1.90
2018-12-09T17:27:04.054Z,1.83
2018-12-09T17:29:31.630Z,2.23
2018-12-09T17:31:59.090Z,2.37
2018-12-09T17:34:26.555Z,2.60
2018-12-09T17:36:54.027Z,3.03
2018-12-09T17:39:21.493Z,2.33
2018-12-09T17:41:48.993Z,2.53
2018-12-09T17:44:16.493Z,2.53
2018-12-09T17:46:44.043Z,2.13
2018-12-09T17:49:11.529Z,2.10
2018-12-09T17:51:39.001Z,2.57
2018-12-09T17:54:06.469Z,1.90
2018-12-09T17:56:33.918Z,1.50
2018-12-09T17:59:01.360Z,2.23
2018-12-09T18:01:28.825Z,2.23
2018-12-09T18:03:56.278Z,1.83
2018-12-09T18:06:23.750Z,1.27
2018-12-09T18:08:51.318Z,1.60
2018-12-09T18:11:18.772Z,2.03
2018-12-09T18:13:46.244Z,2.53
2018-12-09T18:16:13.801Z,2.50
2018-12-09T18:18:41.251Z,1.67
2018-12-09T18:21:08.844Z,1.73
2018-12-09T18:23:37.910Z,1.43
2018-12-09T18:26:05.414Z,1.23
2018-12-09T18:28:32.876Z,1.70
2018-12-09T18:31:00.352Z,1.80
2018-12-09T18:33:28.567Z,2.17
2018-12-09T18:35:56.064Z,2.07
2018-12-09T18:38:23.517Z,1.80
2018-12-09T18:40:50.973Z,1.73
2018-12-09T18:43:18.544Z,2.37
2018-12-09T18:45:46.004Z,1.53
2018-12-09T18:48:13.480Z,2.23
2018-12-09T18:50:40.924Z,1.63
2018-12-09T18:53:08.366Z,2.33
2018-12-09T18:55:35.835Z,2.13
2018-12-09T18:58:04.422Z,1.77
2018-12-09T19:00:31.898Z,1.50
2018-12-09T19:02:59.456Z,1.70
2018-12-09T19:05:26.904Z,1.60
2018-12-09T19:07:54.362Z,2.27
2018-12-09T19:10:21.850Z,1.50
2018-12-09T19:12:49.315Z,1.90
2018-12-09T19:15:16.785Z,2.07
2018-12-09T19:17:44.225Z,1.90
2018-12-09T19:20:11.798Z,1.90
2018-12-09T19:22:39.249Z,1.90
2018-12-09T19:25:06.721Z,2.07
2018-12-09T19:27:34.272Z,2.10
2018-12-09T19:30:01.718Z,1.80
2018-12-09T19:32:29.223Z,2.07
2018-12-09T19:34:56.682Z,2.10
2018-12-09T19:37:24.185Z,2.00
2018-12-09T19:39:51.699Z,2.27
2018-12-09T19:42:19.145Z,1.93
2018-12-09T19:44:46.615Z,1.97
2018-12-09T19:47:14.056Z,2.60
2018-12-09T19:49:41.545Z,1.90
2018-12-09T19:52:09.016Z,2.97
2018-12-09T19:54:38.011Z,2.60
2018-12-09T19:57:05.468Z,1.90
2018-12-09T19:59:33.017Z,2.27
2018-12-09T20:02:00.587Z,1.80
2018-12-09T20:04:28.051Z,1.90
2018-12-09T20:06:55.596Z,1.63
2018-12-09T20:09:22.969Z,1.57
2018-12-09T20:11:50.537Z,1.75
2018-12-09T20:14:18.001Z,1.77
2018-12-09T20:16:45.462Z,1.57
2018-12-09T20:19:12.925Z,2.50
2018-12-09T20:21:40.499Z,2.10
2018-12-09T20:24:09.492Z,2.53
2018-12-09T20:26:37.053Z,1.67
2018-12-09T20:29:04.523Z,2.23
2018-12-09T20:31:32.080Z,2.07
2018-12-09T20:33:59.531Z,2.17
2018-12-09T20:36:26.986Z,2.27
2018-12-09T20:38:54.458Z,1.50
2018-12-09T20:41:22.014Z,2.10
2018-12-09T20:43:49.475Z,1.70
2018-12-09T20:46:17.048Z,1.47
2018-12-09T20:48:44.515Z,1.43
2018-12-09T20:51:12.318Z,1.65
2018-12-09T20:53:39.850Z,2.03
2018-12-09T20:56:07.410Z,1.80
2018-12-09T20:58:34.868Z,1.50
2018-12-09T21:03:36.019Z,1.57
2018-12-09T21:06:04.473Z,2.12
2018-12-09T21:08:31.951Z,1.97
2018-12-09T21:10:59.442Z,1.60
2018-12-09T21:13:26.930Z,1.60
2018-12-09T21:15:54.385Z,2.10
2018-12-09T21:18:21.835Z,1.70
2018-12-09T21:20:49.291Z,1.70
2018-12-09T21:23:16.750Z,1.30
2018-12-09T21:25:44.217Z,1.80
2018-12-09T21:28:11.686Z,1.60
2018-12-09T21:30:39.153Z,2.60
2018-12-09T21:33:06.612Z,2.43
2018-12-09T21:35:34.083Z,2.53
2018-12-09T21:38:02.338Z,2.27
2018-12-09T21:40:29.809Z,1.83
2018-12-09T21:42:58.766Z,2.60
2018-12-09T21:45:26.243Z,1.53
2018-12-09T21:47:53.702Z,1.77
2018-12-09T21:50:21.167Z,1.40
2018-12-09T21:52:48.643Z,1.33
2018-12-09T21:55:16.198Z,1.87
2018-12-09T21:57:43.687Z,1.83
2018-12-09T22:00:11.161Z,1.83
2018-12-09T22:02:39.400Z,1.80
2018-12-09T22:05:06.856Z,1.60
2018-12-09T22:07:34.338Z,1.60
2018-12-09T22:10:01.903Z,2.00
2018-12-09T22:12:29.473Z,1.60
2018-12-09T22:14:57.095Z,1.53
2018-12-09T22:17:24.650Z,1.20
2018-12-09T22:19:52.864Z,1.80
2018-12-09T22:22:20.430Z,1.33
2018-12-09T22:24:47.997Z,1.60
2018-12-09T22:27:15.455Z,1.30
2018-12-09T22:29:42.906Z,1.27
2018-12-09T22:32:10.381Z,1.77
2018-12-09T22:34:37.945Z,1.73
2018-12-09T22:37:05.459Z,2.00
2018-12-09T22:39:32.906Z,1.33
2018-12-09T22:42:01.130Z,1.60
2018-12-09T22:44:28.613Z,1.70
2018-12-09T22:46:57.592Z,2.13
2018-12-09T22:49:25.078Z,1.90
2018-12-09T22:51:52.628Z,1.40
2018-12-09T22:54:20.102Z,1.70
2018-12-09T22:56:47.561Z,1.73
2018-12-09T22:59:15.040Z,1.60
2018-12-09T23:01:42.491Z,1.90
2018-12-09T23:04:10.046Z,1.83
2018-12-09T23:06:37.526Z,1.50
2018-12-09T23:09:04.983Z,1.70
2018-12-09T23:11:33.254Z,1.60
2018-12-09T23:14:00.794Z,2.23
2018-12-09T23:16:28.271Z,2.10
2018-12-09T23:18:55.721Z,2.23
2018-12-09T23:21:23.194Z,1.50
2018-12-09T23:23:50.657Z,2.03
2018-12-09T23:26:18.117Z,1.73
2018-12-09T23:28:45.572Z,1.10
2018-12-09T23:31:13.018Z,1.27
2018-12-09T23:33:40.492Z,0.80
2018-12-09T23:36:07.956Z,1.23
2018-12-09T23:38:36.559Z,1.17
2018-12-09T23:41:04.119Z,1.40
2018-12-09T23:43:31.668Z,1.40
2018-12-09T23:45:59.147Z,1.40
2018-12-09T23:48:26.714Z,1.77
2018-12-09T23:50:54.266Z,1.63
2018-12-09T23:53:21.733Z,1.43
2018-12-09T23:55:49.198Z,1.50
2018-12-09T23:58:16.656Z,1.80
